sensor_id;sensor_type;location;lat;lon;timestamp;pressure;altitude;pressure_sealevel;temperature;humidity
47913;BME280;33676;51.006;17.180;2023-03-14T00:01:22;98501.16;;;8.71;94.91
47913;BME280;33676;51.006;17.180;2023-03-14T00:03:51;98500.89;;;8.70;94.82
47913;BME280;33676;51.006;17.180;2023-03-14T00:06:20;98498.53;;;8.69;94.78
47913;BME280;33676;51.006;17.180;2023-03-14T00:08:49;98489.27;;;8.70;94.78
47913;BME280;33676;51.006;17.180;2023-03-14T00:11:20;98474.48;;;8.71;94.77
47913;BME280;33676;51.006;17.180;2023-03-14T00:13:51;98465.90;;;8.73;94.71
47913;BME280;33676;51.006;17.180;2023-03-14T00:16:20;98462.14;;;8.76;94.72
47913;BME280;33676;51.006;17.180;2023-03-14T00:18:48;98467.06;;;8.79;94.75
47913;BME280;33676;51.006;17.180;2023-03-14T00:21:19;98468.45;;;8.84;94.58
47913;BME280;33676;51.006;17.180;2023-03-14T00:23:47;98469.19;;;8.92;94.47
47913;BME280;33676;51.006;17.180;2023-03-14T00:26:19;98470.79;;;9.01;94.59
47913;BME280;33676;51.006;17.180;2023-03-14T00:28:52;98467.14;;;9.09;94.34
47913;BME280;33676;51.006;17.180;2023-03-14T00:31:21;98461.45;;;9.17;94.37
47913;BME280;33676;51.006;17.180;2023-03-14T00:33:52;98456.83;;;9.21;94.35
47913;BME280;33676;51.006;17.180;2023-03-14T00:36:21;98457.78;;;9.24;94.15
47913;BME280;33676;51.006;17.180;2023-03-14T00:38:51;98462.36;;;9.23;93.87
47913;BME280;33676;51.006;17.180;2023-03-14T00:41:22;98462.98;;;9.22;93.69
47913;BME280;33676;51.006;17.180;2023-03-14T00:43:51;98458.86;;;9.22;93.64
47913;BME280;33676;51.006;17.180;2023-03-14T00:46:19;98461.96;;;9.20;93.61
47913;BME280;33676;51.006;17.180;2023-03-14T00:48:48;98471.53;;;9.21;93.47
47913;BME280;33676;51.006;17.180;2023-03-14T00:51:16;98475.71;;;9.20;93.58
47913;BME280;33676;51.006;17.180;2023-03-14T00:53:45;98473.01;;;9.21;93.66
47913;BME280;33676;51.006;17.180;2023-03-14T00:56:14;98471.73;;;9.22;93.50
47913;BME280;33676;51.006;17.180;2023-03-14T00:58:43;98465.13;;;9.25;93.74
47913;BME280;33676;51.006;17.180;2023-03-14T01:01:17;98456.99;;;9.28;93.43
47913;BME280;33676;51.006;17.180;2023-03-14T01:03:46;98449.97;;;9.28;93.24
47913;BME280;33676;51.006;17.180;2023-03-14T01:06:19;98460.23;;;9.29;93.06
47913;BME280;33676;51.006;17.180;2023-03-14T01:08:48;98501.62;;;9.28;92.92
47913;BME280;33676;51.006;17.180;2023-03-14T01:11:22;98544.23;;;9.26;92.86
47913;BME280;33676;51.006;17.180;2023-03-14T01:13:52;98537.02;;;9.19;92.60
47913;BME280;33676;51.006;17.180;2023-03-14T01:16:23;98522.39;;;9.19;92.86
47913;BME280;33676;51.006;17.180;2023-03-14T01:18:52;98518.13;;;9.23;93.06
47913;BME280;33676;51.006;17.180;2023-03-14T01:21:29;98519.57;;;9.28;93.01
47913;BME280;33676;51.006;17.180;2023-03-14T01:24:00;98523.46;;;9.36;93.15
47913;BME280;33676;51.006;17.180;2023-03-14T01:26:33;98531.80;;;9.43;93.18
47913;BME280;33676;51.006;17.180;2023-03-14T01:29:03;98515.19;;;9.51;93.17
47913;BME280;33676;51.006;17.180;2023-03-14T01:31:32;98511.40;;;9.57;92.91
47913;BME280;33676;51.006;17.180;2023-03-14T01:34:00;98500.92;;;9.62;92.90
47913;BME280;33676;51.006;17.180;2023-03-14T01:36:29;98489.50;;;9.67;92.72
47913;BME280;33676;51.006;17.180;2023-03-14T01:38:59;98477.67;;;9.70;92.66
47913;BME280;33676;51.006;17.180;2023-03-14T01:41:27;98471.00;;;9.70;92.49
47913;BME280;33676;51.006;17.180;2023-03-14T01:43:56;98447.89;;;9.69;92.42
47913;BME280;33676;51.006;17.180;2023-03-14T01:46:32;98413.29;;;9.68;92.42
47913;BME280;33676;51.006;17.180;2023-03-14T01:49:27;98428.73;;;9.67;92.74
47913;BME280;33676;51.006;17.180;2023-03-14T01:52:11;98465.32;;;9.64;92.48
47913;BME280;33676;51.006;17.180;2023-03-14T01:54:48;98455.34;;;9.57;92.45
47913;BME280;33676;51.006;17.180;2023-03-14T01:57:41;98439.03;;;9.52;92.66
47913;BME280;33676;51.006;17.180;2023-03-14T02:00:16;98423.85;;;9.49;92.93
47913;BME280;33676;51.006;17.180;2023-03-14T02:02:54;98420.37;;;9.47;93.03
47913;BME280;33676;51.006;17.180;2023-03-14T02:05:34;98411.77;;;9.45;93.02
47913;BME280;33676;51.006;17.180;2023-03-14T02:08:07;98407.57;;;9.42;92.98
47913;BME280;33676;51.006;17.180;2023-03-14T02:10:45;98397.67;;;9.39;93.11
47913;BME280;33676;51.006;17.180;2023-03-14T02:13:39;98380.20;;;9.33;93.08
47913;BME280;33676;51.006;17.180;2023-03-14T02:16:07;98376.29;;;9.28;93.16
47913;BME280;33676;51.006;17.180;2023-03-14T02:18:37;98365.51;;;9.23;93.19
47913;BME280;33676;51.006;17.180;2023-03-14T02:21:23;98371.49;;;9.17;93.28
47913;BME280;33676;51.006;17.180;2023-03-14T02:24:17;98380.48;;;9.09;93.23
47913;BME280;33676;51.006;17.180;2023-03-14T02:27:09;98386.98;;;9.01;93.30
47913;BME280;33676;51.006;17.180;2023-03-14T02:30:00;98378.41;;;8.92;93.48
47913;BME280;33676;51.006;17.180;2023-03-14T02:32:31;98368.06;;;8.83;93.62
47913;BME280;33676;51.006;17.180;2023-03-14T02:35:08;98359.19;;;8.76;93.73
47913;BME280;33676;51.006;17.180;2023-03-14T02:37:47;98338.21;;;8.70;93.87
47913;BME280;33676;51.006;17.180;2023-03-14T02:40:18;98327.23;;;8.64;93.96
47913;BME280;33676;51.006;17.180;2023-03-14T02:42:46;98325.13;;;8.61;94.22
47913;BME280;33676;51.006;17.180;2023-03-14T02:47:54;98318.95;;;8.58;94.64
47913;BME280;33676;51.006;17.180;2023-03-14T02:50:29;98308.56;;;8.58;94.88
47913;BME280;33676;51.006;17.180;2023-03-14T02:53:01;98304.35;;;8.60;95.10
47913;BME280;33676;51.006;17.180;2023-03-14T02:55:29;98325.10;;;8.73;95.89
47913;BME280;33676;51.006;17.180;2023-03-14T02:57:58;98323.52;;;8.90;96.23
47913;BME280;33676;51.006;17.180;2023-03-14T03:00:26;98319.64;;;9.04;96.17
47913;BME280;33676;51.006;17.180;2023-03-14T03:02:54;98333.77;;;9.13;95.93
47913;BME280;33676;51.006;17.180;2023-03-14T03:05:23;98328.52;;;9.18;95.67
47913;BME280;33676;51.006;17.180;2023-03-14T03:07:51;98314.98;;;9.19;95.30
47913;BME280;33676;51.006;17.180;2023-03-14T03:10:20;98300.65;;;9.21;95.19
47913;BME280;33676;51.006;17.180;2023-03-14T03:12:48;98282.52;;;9.24;95.16
47913;BME280;33676;51.006;17.180;2023-03-14T03:15:17;98280.80;;;9.29;95.08
47913;BME280;33676;51.006;17.180;2023-03-14T03:17:45;98275.80;;;9.38;95.19
47913;BME280;33676;51.006;17.180;2023-03-14T03:20:14;98261.77;;;9.44;94.96
47913;BME280;33676;51.006;17.180;2023-03-14T03:22:42;98250.77;;;9.51;94.89
47913;BME280;33676;51.006;17.180;2023-03-14T03:25:11;98242.50;;;9.58;94.75
47913;BME280;33676;51.006;17.180;2023-03-14T03:27:39;98227.49;;;9.65;94.52
47913;BME280;33676;51.006;17.180;2023-03-14T03:30:09;98228.15;;;9.72;94.38
47913;BME280;33676;51.006;17.180;2023-03-14T03:32:37;98232.27;;;9.77;94.31
47913;BME280;33676;51.006;17.180;2023-03-14T03:35:06;98235.17;;;9.79;93.91
47913;BME280;33676;51.006;17.180;2023-03-14T03:37:35;98233.41;;;9.79;93.64
47913;BME280;33676;51.006;17.180;2023-03-14T03:40:04;98222.48;;;9.80;93.39
47913;BME280;33676;51.006;17.180;2023-03-14T03:42:34;98213.04;;;9.80;93.28
47913;BME280;33676;51.006;17.180;2023-03-14T03:45:03;98207.23;;;9.81;93.04
47913;BME280;33676;51.006;17.180;2023-03-14T03:47:32;98198.51;;;9.79;92.88
47913;BME280;33676;51.006;17.180;2023-03-14T03:50:00;98195.30;;;9.82;92.96
47913;BME280;33676;51.006;17.180;2023-03-14T03:52:29;98176.98;;;9.83;92.92
47913;BME280;33676;51.006;17.180;2023-03-14T03:54:57;98162.11;;;9.85;92.95
47913;BME280;33676;51.006;17.180;2023-03-14T03:57:26;98155.05;;;9.86;92.82
47913;BME280;33676;51.006;17.180;2023-03-14T03:59:54;98162.55;;;9.84;92.67
47913;BME280;33676;51.006;17.180;2023-03-14T04:02:22;98186.60;;;9.83;92.62
47913;BME280;33676;51.006;17.180;2023-03-14T04:04:51;98206.27;;;9.84;92.53
47913;BME280;33676;51.006;17.180;2023-03-14T04:07:20;98190.34;;;9.87;92.73
47913;BME280;33676;51.006;17.180;2023-03-14T04:09:48;98184.10;;;9.93;92.93
47913;BME280;33676;51.006;17.180;2023-03-14T04:12:17;98174.36;;;9.95;92.73
47913;BME280;33676;51.006;17.180;2023-03-14T04:14:45;98174.90;;;9.95;92.80
47913;BME280;33676;51.006;17.180;2023-03-14T04:17:13;98180.30;;;9.96;92.86
47913;BME280;33676;51.006;17.180;2023-03-14T04:19:42;98180.71;;;9.99;92.70
47913;BME280;33676;51.006;17.180;2023-03-14T04:22:10;98166.70;;;10.02;92.75
47913;BME280;33676;51.006;17.180;2023-03-14T04:24:38;98155.64;;;10.04;92.64
47913;BME280;33676;51.006;17.180;2023-03-14T04:27:07;98145.81;;;10.05;92.83
47913;BME280;33676;51.006;17.180;2023-03-14T04:29:35;98154.83;;;10.04;92.65
47913;BME280;33676;51.006;17.180;2023-03-14T04:32:04;98166.25;;;10.03;92.64
47913;BME280;33676;51.006;17.180;2023-03-14T04:34:32;98153.78;;;10.01;92.68
47913;BME280;33676;51.006;17.180;2023-03-14T04:37:00;98147.70;;;9.99;92.68
47913;BME280;33676;51.006;17.180;2023-03-14T04:39:29;98146.09;;;9.98;92.73
47913;BME280;33676;51.006;17.180;2023-03-14T04:41:57;98140.41;;;9.97;92.68
47913;BME280;33676;51.006;17.180;2023-03-14T04:44:25;98134.19;;;9.96;92.66
47913;BME280;33676;51.006;17.180;2023-03-14T04:46:54;98129.99;;;9.96;92.38
47913;BME280;33676;51.006;17.180;2023-03-14T04:49:23;98123.02;;;9.96;92.54
47913;BME280;33676;51.006;17.180;2023-03-14T04:51:51;98125.77;;;9.96;92.47
47913;BME280;33676;51.006;17.180;2023-03-14T04:54:20;98129.67;;;9.98;92.34
47913;BME280;33676;51.006;17.180;2023-03-14T04:56:48;98130.48;;;10.00;92.48
47913;BME280;33676;51.006;17.180;2023-03-14T04:59:16;98120.80;;;9.99;92.50
47913;BME280;33676;51.006;17.180;2023-03-14T05:01:45;98113.11;;;9.97;92.47
47913;BME280;33676;51.006;17.180;2023-03-14T05:04:13;98112.34;;;9.96;92.50
47913;BME280;33676;51.006;17.180;2023-03-14T05:06:42;98123.33;;;9.96;92.56
47913;BME280;33676;51.006;17.180;2023-03-14T05:09:10;98139.06;;;9.98;92.57
47913;BME280;33676;51.006;17.180;2023-03-14T05:11:38;98151.91;;;10.00;92.38
47913;BME280;33676;51.006;17.180;2023-03-14T05:14:07;98157.67;;;10.02;92.34
47913;BME280;33676;51.006;17.180;2023-03-14T05:16:35;98151.75;;;10.03;92.21
47913;BME280;33676;51.006;17.180;2023-03-14T05:19:04;98138.68;;;10.06;92.21
47913;BME280;33676;51.006;17.180;2023-03-14T05:21:32;98133.11;;;10.08;92.02
47913;BME280;33676;51.006;17.180;2023-03-14T05:24:00;98157.07;;;10.09;92.05
47913;BME280;33676;51.006;17.180;2023-03-14T05:26:29;98164.63;;;10.10;92.08
47913;BME280;33676;51.006;17.180;2023-03-14T05:28:58;98149.63;;;10.11;92.22
47913;BME280;33676;51.006;17.180;2023-03-14T05:31:26;98148.59;;;10.11;92.13
47913;BME280;33676;51.006;17.180;2023-03-14T05:33:54;98148.59;;;10.10;92.03
47913;BME280;33676;51.006;17.180;2023-03-14T05:36:23;98133.97;;;10.05;91.87
47913;BME280;33676;51.006;17.180;2023-03-14T05:38:51;98112.66;;;9.95;91.69
47913;BME280;33676;51.006;17.180;2023-03-14T05:41:19;98118.27;;;9.87;91.56
47913;BME280;33676;51.006;17.180;2023-03-14T05:43:48;98118.11;;;9.82;91.79
47913;BME280;33676;51.006;17.180;2023-03-14T05:46:16;98119.52;;;9.79;92.11
47913;BME280;33676;51.006;17.180;2023-03-14T05:48:44;98136.26;;;9.76;92.18
47913;BME280;33676;51.006;17.180;2023-03-14T05:51:13;98141.17;;;9.74;92.29
47913;BME280;33676;51.006;17.180;2023-03-14T05:53:41;98143.36;;;9.73;92.33
47913;BME280;33676;51.006;17.180;2023-03-14T05:56:09;98140.41;;;9.73;92.56
47913;BME280;33676;51.006;17.180;2023-03-14T05:58:38;98132.73;;;9.73;92.72
47913;BME280;33676;51.006;17.180;2023-03-14T06:01:07;98130.70;;;9.74;93.00
47913;BME280;33676;51.006;17.180;2023-03-14T06:03:36;98131.58;;;9.75;93.00
47913;BME280;33676;51.006;17.180;2023-03-14T06:06:05;98145.09;;;9.76;92.97
47913;BME280;33676;51.006;17.180;2023-03-14T06:08:33;98150.62;;;9.77;92.95
47913;BME280;33676;51.006;17.180;2023-03-14T06:11:03;98151.27;;;9.77;92.93
47913;BME280;33676;51.006;17.180;2023-03-14T06:13:32;98146.78;;;9.78;92.97
47913;BME280;33676;51.006;17.180;2023-03-14T06:16:00;98142.44;;;9.80;93.07
47913;BME280;33676;51.006;17.180;2023-03-14T06:18:29;98130.88;;;9.80;93.04
47913;BME280;33676;51.006;17.180;2023-03-14T06:20:57;98114.00;;;9.80;92.98
47913;BME280;33676;51.006;17.180;2023-03-14T06:23:26;98120.19;;;9.81;92.96
47913;BME280;33676;51.006;17.180;2023-03-14T06:25:54;98124.92;;;9.82;93.00
47913;BME280;33676;51.006;17.180;2023-03-14T06:28:23;98132.73;;;9.84;93.08
47913;BME280;33676;51.006;17.180;2023-03-14T06:30:53;98142.54;;;9.87;93.33
47913;BME280;33676;51.006;17.180;2023-03-14T06:33:21;98144.45;;;9.88;93.44
47913;BME280;33676;51.006;17.180;2023-03-14T06:35:50;98147.82;;;9.89;93.48
47913;BME280;33676;51.006;17.180;2023-03-14T06:38:18;98150.46;;;9.91;93.50
47913;BME280;33676;51.006;17.180;2023-03-14T06:40:47;98145.32;;;9.93;93.52
47913;BME280;33676;51.006;17.180;2023-03-14T06:43:15;98148.33;;;9.96;93.53
47913;BME280;33676;51.006;17.180;2023-03-14T06:45:43;98154.08;;;10.01;93.43
47913;BME280;33676;51.006;17.180;2023-03-14T06:48:12;98158.33;;;10.07;93.51
47913;BME280;33676;51.006;17.180;2023-03-14T06:50:41;98154.60;;;10.14;93.31
47913;BME280;33676;51.006;17.180;2023-03-14T06:53:10;98158.59;;;10.22;93.18
47913;BME280;33676;51.006;17.180;2023-03-14T06:55:38;98150.91;;;10.30;93.11
47913;BME280;33676;51.006;17.180;2023-03-14T06:58:06;98150.53;;;10.37;92.91
47913;BME280;33676;51.006;17.180;2023-03-14T07:00:36;98155.52;;;10.43;92.81
47913;BME280;33676;51.006;17.180;2023-03-14T07:03:04;98160.41;;;10.49;92.74
47913;BME280;33676;51.006;17.180;2023-03-14T07:05:33;98164.24;;;10.54;92.63
47913;BME280;33676;51.006;17.180;2023-03-14T07:08:02;98156.56;;;10.59;92.45
47913;BME280;33676;51.006;17.180;2023-03-14T07:10:56;98149.59;;;10.64;92.37
47913;BME280;33676;51.006;17.180;2023-03-14T07:13:25;98155.33;;;10.65;92.22
47913;BME280;33676;51.006;17.180;2023-03-14T07:15:54;98153.02;;;10.67;91.87
47913;BME280;33676;51.006;17.180;2023-03-14T07:18:22;98156.00;;;10.69;91.36
47913;BME280;33676;51.006;17.180;2023-03-14T07:20:50;98162.02;;;10.70;91.18
47913;BME280;33676;51.006;17.180;2023-03-14T07:23:19;98175.98;;;10.70;91.19
47913;BME280;33676;51.006;17.180;2023-03-14T07:25:47;98184.77;;;10.69;90.94
47913;BME280;33676;51.006;17.180;2023-03-14T07:28:15;98192.80;;;10.68;90.85
47913;BME280;33676;51.006;17.180;2023-03-14T07:30:46;98197.06;;;10.66;90.91
47913;BME280;33676;51.006;17.180;2023-03-14T07:33:15;98189.40;;;10.64;90.62
47913;BME280;33676;51.006;17.180;2023-03-14T07:35:44;98179.00;;;10.61;90.39
47913;BME280;33676;51.006;17.180;2023-03-14T07:38:12;98180.80;;;10.59;90.22
47913;BME280;33676;51.006;17.180;2023-03-14T07:40:40;98169.39;;;10.57;90.16
47913;BME280;33676;51.006;17.180;2023-03-14T07:43:09;98169.59;;;10.55;90.32
47913;BME280;33676;51.006;17.180;2023-03-14T07:45:37;98155.67;;;10.52;90.10
47913;BME280;33676;51.006;17.180;2023-03-14T07:48:10;98151.46;;;10.51;90.10
47913;BME280;33676;51.006;17.180;2023-03-14T07:50:38;98157.49;;;10.51;90.33
47913;BME280;33676;51.006;17.180;2023-03-14T07:53:07;98179.53;;;10.49;90.23
47913;BME280;33676;51.006;17.180;2023-03-14T07:55:35;98193.88;;;10.47;90.46
47913;BME280;33676;51.006;17.180;2023-03-14T07:58:03;98196.84;;;10.44;90.61
47913;BME280;33676;51.006;17.180;2023-03-14T08:00:32;98196.09;;;10.40;90.65
47913;BME280;33676;51.006;17.180;2023-03-14T08:03:00;98188.88;;;10.36;90.71
47913;BME280;33676;51.006;17.180;2023-03-14T08:05:29;98172.00;;;10.30;90.80
47913;BME280;33676;51.006;17.180;2023-03-14T08:07:57;98155.70;;;10.26;90.86
47913;BME280;33676;51.006;17.180;2023-03-14T08:10:26;98160.98;;;10.26;91.04
47913;BME280;33676;51.006;17.180;2023-03-14T08:12:59;98174.05;;;10.24;91.07
47913;BME280;33676;51.006;17.180;2023-03-14T08:15:30;98178.34;;;10.22;91.19
47913;BME280;33676;51.006;17.180;2023-03-14T08:17:59;98170.55;;;10.20;91.39
47913;BME280;33676;51.006;17.180;2023-03-14T08:20:29;98166.58;;;10.18;91.65
47913;BME280;33676;51.006;17.180;2023-03-14T08:23:00;98181.27;;;10.15;91.86
47913;BME280;33676;51.006;17.180;2023-03-14T08:25:28;98189.79;;;10.14;92.02
47913;BME280;33676;51.006;17.180;2023-03-14T08:27:57;98168.86;;;10.08;92.21
47913;BME280;33676;51.006;17.180;2023-03-14T08:30:26;98155.02;;;9.99;92.28
47913;BME280;33676;51.006;17.180;2023-03-14T08:32:57;98171.41;;;9.89;92.68
47913;BME280;33676;51.006;17.180;2023-03-14T08:35:26;98196.94;;;9.83;92.78
47913;BME280;33676;51.006;17.180;2023-03-14T08:37:55;98212.66;;;9.81;93.23
47913;BME280;33676;51.006;17.180;2023-03-14T08:40:24;98220.70;;;9.81;93.27
47913;BME280;33676;51.006;17.180;2023-03-14T08:42:52;98227.89;;;9.82;93.37
47913;BME280;33676;51.006;17.180;2023-03-14T08:45:21;98238.84;;;9.84;93.28
47913;BME280;33676;51.006;17.180;2023-03-14T08:47:49;98240.71;;;9.86;93.26
47913;BME280;33676;51.006;17.180;2023-03-14T08:50:18;98251.11;;;9.88;93.27
47913;BME280;33676;51.006;17.180;2023-03-14T08:52:46;98252.20;;;9.91;93.22
47913;BME280;33676;51.006;17.180;2023-03-14T08:55:14;98244.86;;;9.96;93.27
47913;BME280;33676;51.006;17.180;2023-03-14T08:57:43;98245.67;;;10.02;93.21
47913;BME280;33676;51.006;17.180;2023-03-14T09:00:12;98248.84;;;10.08;93.17
47913;BME280;33676;51.006;17.180;2023-03-14T09:02:43;98236.43;;;10.14;93.22
47913;BME280;33676;51.006;17.180;2023-03-14T09:05:12;98236.41;;;10.19;93.32
47913;BME280;33676;51.006;17.180;2023-03-14T09:07:40;98243.03;;;10.22;93.16
47913;BME280;33676;51.006;17.180;2023-03-14T09:10:10;98232.69;;;10.23;93.15
47913;BME280;33676;51.006;17.180;2023-03-14T09:12:38;98231.24;;;10.23;93.27
47913;BME280;33676;51.006;17.180;2023-03-14T09:15:08;98229.44;;;10.26;93.18
47913;BME280;33676;51.006;17.180;2023-03-14T09:17:36;98233.56;;;10.28;93.20
47913;BME280;33676;51.006;17.180;2023-03-14T09:20:05;98231.95;;;10.31;93.18
47913;BME280;33676;51.006;17.180;2023-03-14T09:22:35;98228.20;;;10.37;93.22
47913;BME280;33676;51.006;17.180;2023-03-14T09:25:04;98225.16;;;10.41;93.20
47913;BME280;33676;51.006;17.180;2023-03-14T09:27:33;98230.26;;;10.43;93.17
47913;BME280;33676;51.006;17.180;2023-03-14T09:30:02;98235.23;;;10.46;93.23
47913;BME280;33676;51.006;17.180;2023-03-14T09:32:31;98247.60;;;10.48;93.47
47913;BME280;33676;51.006;17.180;2023-03-14T09:35:00;98252.97;;;10.48;93.49
47913;BME280;33676;51.006;17.180;2023-03-14T09:37:29;98256.50;;;10.51;93.47
47913;BME280;33676;51.006;17.180;2023-03-14T09:39:57;98259.80;;;10.53;93.61
47913;BME280;33676;51.006;17.180;2023-03-14T09:42:27;98265.39;;;10.56;93.50
47913;BME280;33676;51.006;17.180;2023-03-14T09:44:59;98269.33;;;10.60;93.67
47913;BME280;33676;51.006;17.180;2023-03-14T09:47:30;98275.89;;;10.64;93.71
47913;BME280;33676;51.006;17.180;2023-03-14T09:50:00;98281.85;;;10.65;93.78
47913;BME280;33676;51.006;17.180;2023-03-14T09:52:37;98293.98;;;10.65;93.82
47913;BME280;33676;51.006;17.180;2023-03-14T09:55:20;98295.73;;;10.64;93.72
47913;BME280;33676;51.006;17.180;2023-03-14T09:57:54;98304.19;;;10.64;93.71
47913;BME280;33676;51.006;17.180;2023-03-14T10:00:29;98300.59;;;10.63;94.03
47913;BME280;33676;51.006;17.180;2023-03-14T10:05:42;98291.73;;;10.54;94.30
47913;BME280;33676;51.006;17.180;2023-03-14T10:08:13;98295.08;;;10.51;94.60
47913;BME280;33676;51.006;17.180;2023-03-14T10:10:41;98293.55;;;10.47;95.02
47913;BME280;33676;51.006;17.180;2023-03-14T10:13:20;98298.47;;;10.46;95.29
47913;BME280;33676;51.006;17.180;2023-03-14T10:16:03;98301.13;;;10.44;95.59
47913;BME280;33676;51.006;17.180;2023-03-14T10:18:34;98299.25;;;10.43;96.01
47913;BME280;33676;51.006;17.180;2023-03-14T10:21:28;98293.19;;;10.47;96.44
47913;BME280;33676;51.006;17.180;2023-03-14T10:24:20;98295.70;;;10.53;96.88
47913;BME280;33676;51.006;17.180;2023-03-14T10:27:04;98284.05;;;10.59;97.08
47913;BME280;33676;51.006;17.180;2023-03-14T10:29:34;98272.84;;;10.70;97.51
47913;BME280;33676;51.006;17.180;2023-03-14T10:32:06;98268.77;;;10.79;97.86
47913;BME280;33676;51.006;17.180;2023-03-14T10:34:38;98268.27;;;10.90;98.21
47913;BME280;33676;51.006;17.180;2023-03-14T10:37:24;98263.41;;;11.00;98.55
47913;BME280;33676;51.006;17.180;2023-03-14T10:40:01;98261.33;;;11.11;98.60
47913;BME280;33676;51.006;17.180;2023-03-14T10:42:40;98249.48;;;11.18;98.82
47913;BME280;33676;51.006;17.180;2023-03-14T10:45:41;98246.59;;;11.25;98.63
47913;BME280;33676;51.006;17.180;2023-03-14T10:51:24;98239.48;;;11.31;98.64
47913;BME280;33676;51.006;17.180;2023-03-14T10:53:59;98243.89;;;11.34;98.72
47913;BME280;33676;51.006;17.180;2023-03-14T10:56:35;98242.31;;;11.38;98.89
47913;BME280;33676;51.006;17.180;2023-03-14T10:59:13;98254.02;;;11.46;99.11
47913;BME280;33676;51.006;17.180;2023-03-14T11:08:07;98260.98;;;11.69;99.10
47913;BME280;33676;51.006;17.180;2023-03-14T11:10:39;98256.09;;;11.74;99.17
47913;BME280;33676;51.006;17.180;2023-03-14T11:13:37;98251.90;;;11.78;99.15
47913;BME280;33676;51.006;17.180;2023-03-14T11:22:46;98246.73;;;12.11;99.97
47913;BME280;33676;51.006;17.180;2023-03-14T11:28:37;98233.71;;;12.48;100.00
47913;BME280;33676;51.006;17.180;2023-03-14T11:31:29;98228.10;;;12.61;99.87
47913;BME280;33676;51.006;17.180;2023-03-14T11:34:24;98224.73;;;12.72;99.33
47913;BME280;33676;51.006;17.180;2023-03-14T11:37:13;98219.81;;;12.79;99.12
47913;BME280;33676;51.006;17.180;2023-03-14T11:39:54;98221.97;;;12.90;98.94
47913;BME280;33676;51.006;17.180;2023-03-14T11:42:24;98224.45;;;12.96;97.92
47913;BME280;33676;51.006;17.180;2023-03-14T11:44:57;98232.42;;;13.00;97.86
47913;BME280;33676;51.006;17.180;2023-03-14T11:47:41;98232.70;;;13.07;97.66
47913;BME280;33676;51.006;17.180;2023-03-14T11:50:28;98227.31;;;13.18;97.26
47913;BME280;33676;51.006;17.180;2023-03-14T11:56:02;98208.20;;;13.34;95.70
47913;BME280;33676;51.006;17.180;2023-03-14T11:58:34;98198.58;;;13.36;95.30
47913;BME280;33676;51.006;17.180;2023-03-14T12:01:10;98204.48;;;13.38;95.21
47913;BME280;33676;51.006;17.180;2023-03-14T12:03:52;98211.95;;;13.36;94.79
47913;BME280;33676;51.006;17.180;2023-03-14T12:06:51;98210.23;;;13.31;94.59
47913;BME280;33676;51.006;17.180;2023-03-14T12:09:21;98209.89;;;13.20;94.10
47913;BME280;33676;51.006;17.180;2023-03-14T12:11:59;98202.19;;;13.09;93.63
47913;BME280;33676;51.006;17.180;2023-03-14T12:14:34;98202.61;;;12.97;93.47
47913;BME280;33676;51.006;17.180;2023-03-14T12:17:34;98207.98;;;12.86;93.45
47913;BME280;33676;51.006;17.180;2023-03-14T12:20:21;98198.83;;;12.77;94.19
47913;BME280;33676;51.006;17.180;2023-03-14T12:22:55;98188.80;;;12.72;94.41
47913;BME280;33676;51.006;17.180;2023-03-14T12:25:31;98186.86;;;12.66;94.59
47913;BME280;33676;51.006;17.180;2023-03-14T12:28:18;98183.39;;;12.60;94.79
47913;BME280;33676;51.006;17.180;2023-03-14T12:30:47;98185.09;;;12.56;95.21
47913;BME280;33676;51.006;17.180;2023-03-14T12:35:50;98174.42;;;12.45;95.19
47913;BME280;33676;51.006;17.180;2023-03-14T12:38:51;98176.16;;;12.43;95.33
47913;BME280;33676;51.006;17.180;2023-03-14T12:42:02;98185.58;;;12.39;95.39
47913;BME280;33676;51.006;17.180;2023-03-14T12:44:44;98184.20;;;12.36;95.62
47913;BME280;33676;51.006;17.180;2023-03-14T12:49:50;98179.14;;;12.27;95.70
47913;BME280;33676;51.006;17.180;2023-03-14T12:55:36;98184.64;;;12.22;96.02
47913;BME280;33676;51.006;17.180;2023-03-14T13:00:55;98172.86;;;12.20;96.35
47913;BME280;33676;51.006;17.180;2023-03-14T13:03:37;98169.41;;;12.20;96.52
47913;BME280;33676;51.006;17.180;2023-03-14T13:06:09;98170.11;;;12.20;96.64
47913;BME280;33676;51.006;17.180;2023-03-14T13:08:44;98164.59;;;12.21;96.92
47913;BME280;33676;51.006;17.180;2023-03-14T13:11:19;98168.96;;;12.22;96.94
47913;BME280;33676;51.006;17.180;2023-03-14T13:13:59;98171.31;;;12.25;97.18
47913;BME280;33676;51.006;17.180;2023-03-14T13:16:28;98165.04;;;12.28;97.26
47913;BME280;33676;51.006;17.180;2023-03-14T13:19:04;98165.00;;;12.31;97.38
47913;BME280;33676;51.006;17.180;2023-03-14T13:21:39;98158.20;;;12.33;97.52
47913;BME280;33676;51.006;17.180;2023-03-14T13:24:22;98161.16;;;12.35;97.32
47913;BME280;33676;51.006;17.180;2023-03-14T13:26:55;98169.31;;;12.36;97.38
47913;BME280;33676;51.006;17.180;2023-03-14T13:29:30;98166.90;;;12.34;97.39
47913;BME280;33676;51.006;17.180;2023-03-14T13:32:26;98166.98;;;12.32;97.30
47913;BME280;33676;51.006;17.180;2023-03-14T13:34:57;98163.27;;;12.31;97.08
47913;BME280;33676;51.006;17.180;2023-03-14T13:37:26;98165.27;;;12.30;97.13
47913;BME280;33676;51.006;17.180;2023-03-14T13:39:57;98159.23;;;12.29;97.10
47913;BME280;33676;51.006;17.180;2023-03-14T13:42:29;98156.17;;;12.27;96.93
47913;BME280;33676;51.006;17.180;2023-03-14T13:44:57;98161.02;;;12.23;96.85
47913;BME280;33676;51.006;17.180;2023-03-14T13:47:26;98167.05;;;12.18;96.90
47913;BME280;33676;51.006;17.180;2023-03-14T13:49:55;98167.67;;;12.11;96.99
47913;BME280;33676;51.006;17.180;2023-03-14T13:54:59;98170.27;;;11.98;97.28
47913;BME280;33676;51.006;17.180;2023-03-14T13:57:47;98172.50;;;11.94;97.40
47913;BME280;33676;51.006;17.180;2023-03-14T14:02:49;98171.63;;;11.89;97.68
47913;BME280;33676;51.006;17.180;2023-03-14T14:05:18;98169.04;;;11.89;97.87